Terminal Aerodrome Forecast
Issued by NWS Kansas City/Pleasant Hill, MO

Home | Current Version | Previous Version | Text Only | Print | Product List | Glossary On
Versions: 1 2 3 4 5 6 7 8 9 10 11 12 13 14 15 16 17 18 19 20 21 22 23
999
FTUS43 KEAX 251252 AAA
TAFMCI
TAF AMD
KMCI 251252Z 2513/2612 02008KT P6SM OVC029
      TEMPO 2513/2515 2SM BR BKN001
     FM251500 36010KT 5SM BR VCSH OVC005
     FM251800 33009KT P6SM VCSH OVC008
     FM260300 31005KT P6SM OVC010=

USA.gov is the U.S. government's official web portal to all federal, state and local government web resources and services.